sensor_id;sensor_type;location;lat;lon;timestamp;P1;durP1;ratioP1;P2;durP2;ratioP2
73816;SDS011;62146;53.232;-1.304;2023-05-16T00:01:47;3.60;;;1.02;;
73816;SDS011;62146;53.232;-1.304;2023-05-16T00:04:13;4.93;;;1.10;;
73816;SDS011;62146;53.232;-1.304;2023-05-16T00:06:40;5.75;;;1.33;;
73816;SDS011;62146;53.232;-1.304;2023-05-16T00:09:07;3.90;;;1.30;;
73816;SDS011;62146;53.232;-1.304;2023-05-16T00:11:34;5.30;;;1.13;;
73816;SDS011;62146;53.232;-1.304;2023-05-16T00:14:00;4.65;;;1.00;;
73816;SDS011;62146;53.232;-1.304;2023-05-16T00:16:27;4.50;;;1.05;;
73816;SDS011;62146;53.232;-1.304;2023-05-16T00:18:55;4.43;;;1.20;;
73816;SDS011;62146;53.232;-1.304;2023-05-16T00:21:26;4.20;;;1.00;;
73816;SDS011;62146;53.232;-1.304;2023-05-16T00:23:52;4.10;;;1.00;;
73816;SDS011;62146;53.232;-1.304;2023-05-16T00:26:19;4.55;;;1.20;;
73816;SDS011;62146;53.232;-1.304;2023-05-16T00:28:45;5.35;;;1.30;;
73816;SDS011;62146;53.232;-1.304;2023-05-16T00:31:12;3.70;;;1.23;;
73816;SDS011;62146;53.232;-1.304;2023-05-16T00:33:39;5.33;;;1.10;;
73816;SDS011;62146;53.232;-1.304;2023-05-16T00:36:05;6.15;;;1.20;;
73816;SDS011;62146;53.232;-1.304;2023-05-16T00:38:32;4.15;;;1.30;;
73816;SDS011;62146;53.232;-1.304;2023-05-16T00:40:59;5.15;;;1.13;;
73816;SDS011;62146;53.232;-1.304;2023-05-16T00:43:26;3.50;;;1.15;;
73816;SDS011;62146;53.232;-1.304;2023-05-16T00:45:52;4.23;;;1.20;;
73816;SDS011;62146;53.232;-1.304;2023-05-16T00:48:19;4.82;;;1.40;;
73816;SDS011;62146;53.232;-1.304;2023-05-16T00:50:45;5.47;;;1.10;;
73816;SDS011;62146;53.232;-1.304;2023-05-16T00:53:12;4.57;;;1.20;;
73816;SDS011;62146;53.232;-1.304;2023-05-16T00:55:39;5.28;;;1.17;;
73816;SDS011;62146;53.232;-1.304;2023-05-16T00:58:06;4.90;;;1.30;;
73816;SDS011;62146;53.232;-1.304;2023-05-16T01:00:32;4.20;;;1.10;;
73816;SDS011;62146;53.232;-1.304;2023-05-16T01:02:59;6.35;;;1.00;;
73816;SDS011;62146;53.232;-1.304;2023-05-16T01:05:27;3.38;;;1.02;;
73816;SDS011;62146;53.232;-1.304;2023-05-16T01:07:54;5.38;;;1.30;;
73816;SDS011;62146;53.232;-1.304;2023-05-16T01:10:21;5.87;;;1.30;;
73816;SDS011;62146;53.232;-1.304;2023-05-16T01:15:38;5.60;;;1.42;;
73816;SDS011;62146;53.232;-1.304;2023-05-16T01:21:29;4.35;;;1.10;;
73816;SDS011;62146;53.232;-1.304;2023-05-16T01:24:10;5.50;;;1.00;;
73816;SDS011;62146;53.232;-1.304;2023-05-16T01:26:53;4.32;;;1.00;;
73816;SDS011;62146;53.232;-1.304;2023-05-16T01:29:21;4.43;;;1.27;;
73816;SDS011;62146;53.232;-1.304;2023-05-16T01:31:48;4.90;;;1.23;;
73816;SDS011;62146;53.232;-1.304;2023-05-16T01:34:15;3.80;;;1.05;;
73816;SDS011;62146;53.232;-1.304;2023-05-16T01:36:47;3.30;;;0.80;;
73816;SDS011;62146;53.232;-1.304;2023-05-16T01:42:06;3.63;;;0.93;;
73816;SDS011;62146;53.232;-1.304;2023-05-16T01:47:21;5.47;;;1.20;;
73816;SDS011;62146;53.232;-1.304;2023-05-16T01:52:37;4.95;;;1.45;;
73816;SDS011;62146;53.232;-1.304;2023-05-16T01:55:13;3.72;;;1.02;;
73816;SDS011;62146;53.232;-1.304;2023-05-16T01:57:55;4.65;;;1.15;;
73816;SDS011;62146;53.232;-1.304;2023-05-16T02:00:24;4.80;;;1.00;;
73816;SDS011;62146;53.232;-1.304;2023-05-16T02:02:51;6.20;;;1.23;;
73816;SDS011;62146;53.232;-1.304;2023-05-16T02:05:17;6.18;;;1.20;;
73816;SDS011;62146;53.232;-1.304;2023-05-16T02:07:44;5.28;;;0.90;;
73816;SDS011;62146;53.232;-1.304;2023-05-16T02:10:11;4.75;;;1.00;;
73816;SDS011;62146;53.232;-1.304;2023-05-16T02:12:38;3.67;;;0.88;;
73816;SDS011;62146;53.232;-1.304;2023-05-16T02:15:05;4.50;;;0.90;;
73816;SDS011;62146;53.232;-1.304;2023-05-16T02:17:32;4.90;;;1.08;;
73816;SDS011;62146;53.232;-1.304;2023-05-16T02:19:59;6.82;;;1.38;;
73816;SDS011;62146;53.232;-1.304;2023-05-16T02:22:32;4.35;;;1.08;;
73816;SDS011;62146;53.232;-1.304;2023-05-16T02:24:59;5.22;;;1.17;;
73816;SDS011;62146;53.232;-1.304;2023-05-16T02:27:26;3.03;;;0.87;;
73816;SDS011;62146;53.232;-1.304;2023-05-16T02:29:52;3.35;;;0.90;;
73816;SDS011;62146;53.232;-1.304;2023-05-16T02:32:19;5.30;;;1.20;;
73816;SDS011;62146;53.232;-1.304;2023-05-16T02:34:46;5.45;;;1.05;;
73816;SDS011;62146;53.232;-1.304;2023-05-16T02:37:13;3.75;;;0.95;;
73816;SDS011;62146;53.232;-1.304;2023-05-16T02:39:39;4.60;;;1.10;;
73816;SDS011;62146;53.232;-1.304;2023-05-16T02:42:06;3.03;;;0.90;;
73816;SDS011;62146;53.232;-1.304;2023-05-16T02:44:33;4.65;;;0.90;;
73816;SDS011;62146;53.232;-1.304;2023-05-16T02:46:59;3.65;;;0.93;;
73816;SDS011;62146;53.232;-1.304;2023-05-16T02:49:26;5.28;;;1.00;;
73816;SDS011;62146;53.232;-1.304;2023-05-16T02:51:52;5.07;;;1.27;;
73816;SDS011;62146;53.232;-1.304;2023-05-16T02:54:19;5.05;;;1.00;;
73816;SDS011;62146;53.232;-1.304;2023-05-16T02:56:46;4.45;;;0.88;;
73816;SDS011;62146;53.232;-1.304;2023-05-16T02:59:13;5.47;;;0.90;;
73816;SDS011;62146;53.232;-1.304;2023-05-16T03:01:39;5.53;;;1.20;;
73816;SDS011;62146;53.232;-1.304;2023-05-16T03:04:06;3.13;;;0.80;;
73816;SDS011;62146;53.232;-1.304;2023-05-16T03:06:33;4.07;;;0.95;;
73816;SDS011;62146;53.232;-1.304;2023-05-16T03:08:59;3.97;;;1.00;;
73816;SDS011;62146;53.232;-1.304;2023-05-16T03:11:26;4.88;;;1.00;;
73816;SDS011;62146;53.232;-1.304;2023-05-16T03:13:54;4.50;;;0.82;;
73816;SDS011;62146;53.232;-1.304;2023-05-16T03:16:20;5.23;;;1.07;;
73816;SDS011;62146;53.232;-1.304;2023-05-16T03:18:47;4.75;;;1.00;;
73816;SDS011;62146;53.232;-1.304;2023-05-16T03:21:14;3.35;;;0.75;;
73816;SDS011;62146;53.232;-1.304;2023-05-16T03:23:40;6.00;;;0.93;;
73816;SDS011;62146;53.232;-1.304;2023-05-16T03:26:07;5.63;;;1.20;;
73816;SDS011;62146;53.232;-1.304;2023-05-16T03:28:33;3.90;;;0.90;;
73816;SDS011;62146;53.232;-1.304;2023-05-16T03:31:00;5.20;;;1.10;;
73816;SDS011;62146;53.232;-1.304;2023-05-16T03:33:28;4.10;;;0.80;;
73816;SDS011;62146;53.232;-1.304;2023-05-16T03:35:55;4.78;;;1.30;;
73816;SDS011;62146;53.232;-1.304;2023-05-16T03:38:21;5.63;;;1.00;;
73816;SDS011;62146;53.232;-1.304;2023-05-16T03:40:48;4.73;;;0.97;;
73816;SDS011;62146;53.232;-1.304;2023-05-16T03:43:14;7.03;;;1.00;;
73816;SDS011;62146;53.232;-1.304;2023-05-16T03:45:41;4.95;;;1.15;;
73816;SDS011;62146;53.232;-1.304;2023-05-16T03:48:08;3.53;;;0.88;;
73816;SDS011;62146;53.232;-1.304;2023-05-16T03:50:35;6.60;;;1.25;;
73816;SDS011;62146;53.232;-1.304;2023-05-16T03:53:05;5.30;;;1.10;;
73816;SDS011;62146;53.232;-1.304;2023-05-16T03:55:32;3.17;;;0.90;;
73816;SDS011;62146;53.232;-1.304;2023-05-16T03:57:59;5.35;;;1.10;;
73816;SDS011;62146;53.232;-1.304;2023-05-16T04:00:25;5.13;;;1.17;;
73816;SDS011;62146;53.232;-1.304;2023-05-16T04:02:52;3.25;;;0.90;;
73816;SDS011;62146;53.232;-1.304;2023-05-16T04:05:19;2.90;;;0.97;;
73816;SDS011;62146;53.232;-1.304;2023-05-16T04:07:45;5.88;;;1.20;;
73816;SDS011;62146;53.232;-1.304;2023-05-16T04:10:12;3.92;;;0.90;;
73816;SDS011;62146;53.232;-1.304;2023-05-16T04:12:39;4.18;;;1.10;;
73816;SDS011;62146;53.232;-1.304;2023-05-16T04:15:06;3.38;;;1.00;;
73816;SDS011;62146;53.232;-1.304;2023-05-16T04:17:33;3.97;;;0.80;;
73816;SDS011;62146;53.232;-1.304;2023-05-16T04:20:00;3.42;;;0.90;;
73816;SDS011;62146;53.232;-1.304;2023-05-16T04:22:27;4.25;;;0.90;;
73816;SDS011;62146;53.232;-1.304;2023-05-16T04:24:54;4.15;;;1.00;;
73816;SDS011;62146;53.232;-1.304;2023-05-16T04:27:20;2.95;;;0.80;;
73816;SDS011;62146;53.232;-1.304;2023-05-16T04:29:47;3.53;;;1.00;;
73816;SDS011;62146;53.232;-1.304;2023-05-16T04:32:14;4.75;;;0.90;;
73816;SDS011;62146;53.232;-1.304;2023-05-16T04:34:42;4.55;;;1.00;;
73816;SDS011;62146;53.232;-1.304;2023-05-16T04:37:11;5.55;;;1.00;;
73816;SDS011;62146;53.232;-1.304;2023-05-16T04:39:38;4.32;;;1.10;;
73816;SDS011;62146;53.232;-1.304;2023-05-16T04:42:05;4.17;;;1.30;;
73816;SDS011;62146;53.232;-1.304;2023-05-16T04:44:31;6.68;;;1.42;;
73816;SDS011;62146;53.232;-1.304;2023-05-16T04:46:58;4.25;;;1.05;;
73816;SDS011;62146;53.232;-1.304;2023-05-16T04:49:24;5.65;;;0.93;;
73816;SDS011;62146;53.232;-1.304;2023-05-16T04:51:51;4.22;;;0.90;;
73816;SDS011;62146;53.232;-1.304;2023-05-16T04:54:18;3.53;;;0.90;;
73816;SDS011;62146;53.232;-1.304;2023-05-16T04:56:44;7.38;;;1.27;;
73816;SDS011;62146;53.232;-1.304;2023-05-16T04:59:11;3.22;;;0.90;;
73816;SDS011;62146;53.232;-1.304;2023-05-16T05:01:37;3.63;;;0.80;;
73816;SDS011;62146;53.232;-1.304;2023-05-16T05:04:05;5.13;;;1.10;;
73816;SDS011;62146;53.232;-1.304;2023-05-16T05:06:31;4.30;;;1.10;;
73816;SDS011;62146;53.232;-1.304;2023-05-16T05:08:58;4.40;;;0.90;;
73816;SDS011;62146;53.232;-1.304;2023-05-16T05:11:24;4.68;;;1.15;;
73816;SDS011;62146;53.232;-1.304;2023-05-16T05:13:52;4.40;;;1.20;;
73816;SDS011;62146;53.232;-1.304;2023-05-16T05:16:19;3.65;;;0.85;;
73816;SDS011;62146;53.232;-1.304;2023-05-16T05:18:45;3.93;;;0.93;;
73816;SDS011;62146;53.232;-1.304;2023-05-16T05:21:12;3.83;;;1.10;;
73816;SDS011;62146;53.232;-1.304;2023-05-16T05:23:39;3.47;;;0.88;;
73816;SDS011;62146;53.232;-1.304;2023-05-16T05:26:06;4.13;;;1.27;;
73816;SDS011;62146;53.232;-1.304;2023-05-16T05:28:32;4.85;;;1.00;;
73816;SDS011;62146;53.232;-1.304;2023-05-16T05:31:01;4.00;;;1.00;;
73816;SDS011;62146;53.232;-1.304;2023-05-16T05:33:30;3.88;;;1.08;;
73816;SDS011;62146;53.232;-1.304;2023-05-16T05:35:56;4.78;;;0.95;;
73816;SDS011;62146;53.232;-1.304;2023-05-16T05:38:23;3.95;;;1.20;;
73816;SDS011;62146;53.232;-1.304;2023-05-16T05:40:50;5.93;;;1.30;;
73816;SDS011;62146;53.232;-1.304;2023-05-16T05:43:17;4.40;;;1.20;;
73816;SDS011;62146;53.232;-1.304;2023-05-16T05:45:43;5.05;;;1.10;;
73816;SDS011;62146;53.232;-1.304;2023-05-16T05:48:10;3.95;;;1.08;;
73816;SDS011;62146;53.232;-1.304;2023-05-16T05:50:38;5.55;;;1.10;;
73816;SDS011;62146;53.232;-1.304;2023-05-16T05:53:04;4.50;;;1.27;;
73816;SDS011;62146;53.232;-1.304;2023-05-16T05:55:31;5.10;;;1.10;;
73816;SDS011;62146;53.232;-1.304;2023-05-16T05:57:58;5.47;;;1.20;;
73816;SDS011;62146;53.232;-1.304;2023-05-16T06:00:24;4.05;;;1.10;;
73816;SDS011;62146;53.232;-1.304;2023-05-16T06:02:51;5.28;;;1.08;;
73816;SDS011;62146;53.232;-1.304;2023-05-16T06:05:18;6.07;;;1.20;;
73816;SDS011;62146;53.232;-1.304;2023-05-16T06:07:45;5.47;;;1.10;;
73816;SDS011;62146;53.232;-1.304;2023-05-16T06:10:11;6.50;;;1.10;;
73816;SDS011;62146;53.232;-1.304;2023-05-16T06:12:38;5.72;;;1.33;;
73816;SDS011;62146;53.232;-1.304;2023-05-16T06:15:04;5.63;;;1.10;;
73816;SDS011;62146;53.232;-1.304;2023-05-16T06:17:32;6.13;;;1.23;;
73816;SDS011;62146;53.232;-1.304;2023-05-16T06:19:59;4.20;;;0.80;;
73816;SDS011;62146;53.232;-1.304;2023-05-16T06:22:26;5.93;;;1.80;;
73816;SDS011;62146;53.232;-1.304;2023-05-16T06:24:54;4.43;;;1.00;;
73816;SDS011;62146;53.232;-1.304;2023-05-16T06:27:20;3.55;;;1.02;;
73816;SDS011;62146;53.232;-1.304;2023-05-16T06:29:48;4.88;;;1.13;;
73816;SDS011;62146;53.232;-1.304;2023-05-16T06:32:14;5.07;;;0.93;;
73816;SDS011;62146;53.232;-1.304;2023-05-16T06:34:41;3.15;;;0.90;;
73816;SDS011;62146;53.232;-1.304;2023-05-16T06:37:07;4.40;;;1.20;;
73816;SDS011;62146;53.232;-1.304;2023-05-16T06:39:34;5.32;;;1.05;;
73816;SDS011;62146;53.232;-1.304;2023-05-16T06:42:01;4.22;;;1.10;;
73816;SDS011;62146;53.232;-1.304;2023-05-16T06:44:27;4.03;;;0.90;;
73816;SDS011;62146;53.232;-1.304;2023-05-16T06:46:54;4.10;;;1.20;;
73816;SDS011;62146;53.232;-1.304;2023-05-16T06:49:21;6.10;;;1.40;;
73816;SDS011;62146;53.232;-1.304;2023-05-16T06:51:47;5.55;;;1.08;;
73816;SDS011;62146;53.232;-1.304;2023-05-16T06:54:14;4.20;;;1.00;;
73816;SDS011;62146;53.232;-1.304;2023-05-16T06:56:41;7.93;;;1.40;;
73816;SDS011;62146;53.232;-1.304;2023-05-16T06:59:07;3.92;;;1.10;;
73816;SDS011;62146;53.232;-1.304;2023-05-16T07:01:34;4.65;;;1.20;;
73816;SDS011;62146;53.232;-1.304;2023-05-16T07:04:01;4.10;;;1.15;;
73816;SDS011;62146;53.232;-1.304;2023-05-16T07:06:28;3.22;;;0.90;;
73816;SDS011;62146;53.232;-1.304;2023-05-16T07:08:54;5.53;;;1.20;;
73816;SDS011;62146;53.232;-1.304;2023-05-16T07:11:21;3.60;;;1.00;;
73816;SDS011;62146;53.232;-1.304;2023-05-16T07:13:47;6.47;;;1.02;;
73816;SDS011;62146;53.232;-1.304;2023-05-16T07:16:14;3.55;;;1.13;;
73816;SDS011;62146;53.232;-1.304;2023-05-16T07:18:41;4.07;;;1.02;;
73816;SDS011;62146;53.232;-1.304;2023-05-16T07:21:07;4.00;;;1.07;;
73816;SDS011;62146;53.232;-1.304;2023-05-16T07:23:34;3.85;;;1.10;;
73816;SDS011;62146;53.232;-1.304;2023-05-16T07:26:00;4.80;;;0.95;;
73816;SDS011;62146;53.232;-1.304;2023-05-16T07:28:28;4.55;;;1.10;;
73816;SDS011;62146;53.232;-1.304;2023-05-16T07:30:54;5.10;;;0.90;;
73816;SDS011;62146;53.232;-1.304;2023-05-16T07:33:24;3.43;;;0.80;;
73816;SDS011;62146;53.232;-1.304;2023-05-16T07:35:50;5.15;;;1.00;;
73816;SDS011;62146;53.232;-1.304;2023-05-16T07:38:33;5.05;;;0.80;;
73816;SDS011;62146;53.232;-1.304;2023-05-16T07:41:00;3.15;;;0.90;;
73816;SDS011;62146;53.232;-1.304;2023-05-16T07:43:26;4.13;;;0.88;;
73816;SDS011;62146;53.232;-1.304;2023-05-16T07:45:55;4.93;;;0.90;;
73816;SDS011;62146;53.232;-1.304;2023-05-16T07:48:22;4.40;;;0.90;;
73816;SDS011;62146;53.232;-1.304;2023-05-16T07:50:48;6.97;;;1.10;;
73816;SDS011;62146;53.232;-1.304;2023-05-16T07:53:15;5.53;;;1.33;;
73816;SDS011;62146;53.232;-1.304;2023-05-16T07:55:41;3.97;;;0.80;;
73816;SDS011;62146;53.232;-1.304;2023-05-16T07:58:08;5.20;;;1.10;;
73816;SDS011;62146;53.232;-1.304;2023-05-16T08:00:35;3.53;;;0.90;;
73816;SDS011;62146;53.232;-1.304;2023-05-16T08:03:01;7.20;;;1.27;;
73816;SDS011;62146;53.232;-1.304;2023-05-16T08:05:28;5.20;;;1.27;;
73816;SDS011;62146;53.232;-1.304;2023-05-16T08:07:55;4.93;;;1.10;;
73816;SDS011;62146;53.232;-1.304;2023-05-16T08:10:22;4.60;;;1.00;;
73816;SDS011;62146;53.232;-1.304;2023-05-16T08:12:49;3.75;;;1.23;;
73816;SDS011;62146;53.232;-1.304;2023-05-16T08:15:16;5.80;;;1.20;;
73816;SDS011;62146;53.232;-1.304;2023-05-16T08:17:42;5.22;;;1.58;;
73816;SDS011;62146;53.232;-1.304;2023-05-16T08:20:09;4.63;;;1.38;;
73816;SDS011;62146;53.232;-1.304;2023-05-16T08:22:36;5.77;;;1.30;;
73816;SDS011;62146;53.232;-1.304;2023-05-16T08:25:03;5.32;;;1.10;;
73816;SDS011;62146;53.232;-1.304;2023-05-16T08:27:29;6.63;;;1.40;;
73816;SDS011;62146;53.232;-1.304;2023-05-16T08:29:56;3.65;;;1.45;;
73816;SDS011;62146;53.232;-1.304;2023-05-16T08:32:23;4.60;;;1.42;;
73816;SDS011;62146;53.232;-1.304;2023-05-16T08:34:49;5.67;;;1.60;;
73816;SDS011;62146;53.232;-1.304;2023-05-16T08:37:16;7.63;;;1.40;;
73816;SDS011;62146;53.232;-1.304;2023-05-16T08:39:42;5.95;;;1.80;;
73816;SDS011;62146;53.232;-1.304;2023-05-16T08:42:10;6.78;;;1.75;;
73816;SDS011;62146;53.232;-1.304;2023-05-16T08:44:37;4.30;;;1.75;;
73816;SDS011;62146;53.232;-1.304;2023-05-16T08:47:10;6.20;;;1.90;;
73816;SDS011;62146;53.232;-1.304;2023-05-16T08:49:39;5.47;;;1.95;;
73816;SDS011;62146;53.232;-1.304;2023-05-16T08:52:07;7.63;;;2.30;;
73816;SDS011;62146;53.232;-1.304;2023-05-16T08:54:35;6.30;;;2.03;;
73816;SDS011;62146;53.232;-1.304;2023-05-16T08:57:03;6.55;;;2.20;;
73816;SDS011;62146;53.232;-1.304;2023-05-16T08:59:30;5.80;;;2.00;;
73816;SDS011;62146;53.232;-1.304;2023-05-16T09:01:57;7.45;;;2.30;;
73816;SDS011;62146;53.232;-1.304;2023-05-16T09:04:25;6.60;;;2.17;;
73816;SDS011;62146;53.232;-1.304;2023-05-16T09:06:53;8.10;;;2.33;;
73816;SDS011;62146;53.232;-1.304;2023-05-16T09:09:19;7.10;;;2.08;;
73816;SDS011;62146;53.232;-1.304;2023-05-16T09:11:46;8.73;;;2.50;;
73816;SDS011;62146;53.232;-1.304;2023-05-16T09:14:13;6.80;;;2.25;;
73816;SDS011;62146;53.232;-1.304;2023-05-16T09:16:39;6.57;;;2.45;;
73816;SDS011;62146;53.232;-1.304;2023-05-16T09:19:06;8.88;;;2.40;;
73816;SDS011;62146;53.232;-1.304;2023-05-16T09:21:33;6.82;;;2.63;;
73816;SDS011;62146;53.232;-1.304;2023-05-16T09:24:03;7.63;;;2.57;;
73816;SDS011;62146;53.232;-1.304;2023-05-16T09:26:32;9.35;;;2.75;;
73816;SDS011;62146;53.232;-1.304;2023-05-16T09:28:59;12.40;;;2.92;;
73816;SDS011;62146;53.232;-1.304;2023-05-16T09:31:27;7.07;;;2.58;;
73816;SDS011;62146;53.232;-1.304;2023-05-16T09:34:03;9.18;;;2.72;;
73816;SDS011;62146;53.232;-1.304;2023-05-16T09:36:34;6.27;;;2.50;;
73816;SDS011;62146;53.232;-1.304;2023-05-16T09:39:02;8.63;;;2.30;;
73816;SDS011;62146;53.232;-1.304;2023-05-16T09:41:32;6.88;;;2.70;;
73816;SDS011;62146;53.232;-1.304;2023-05-16T09:44:02;7.80;;;2.95;;
73816;SDS011;62146;53.232;-1.304;2023-05-16T09:46:32;7.40;;;2.60;;
73816;SDS011;62146;53.232;-1.304;2023-05-16T09:48:59;6.67;;;2.50;;
73816;SDS011;62146;53.232;-1.304;2023-05-16T09:51:26;8.20;;;2.70;;
73816;SDS011;62146;53.232;-1.304;2023-05-16T09:53:53;9.18;;;3.00;;
73816;SDS011;62146;53.232;-1.304;2023-05-16T09:56:23;7.03;;;3.05;;
73816;SDS011;62146;53.232;-1.304;2023-05-16T09:58:50;7.47;;;2.92;;
73816;SDS011;62146;53.232;-1.304;2023-05-16T10:01:17;8.63;;;3.00;;
73816;SDS011;62146;53.232;-1.304;2023-05-16T10:03:44;9.52;;;2.95;;
73816;SDS011;62146;53.232;-1.304;2023-05-16T10:06:11;7.40;;;2.95;;
73816;SDS011;62146;53.232;-1.304;2023-05-16T10:08:39;8.00;;;3.13;;
73816;SDS011;62146;53.232;-1.304;2023-05-16T10:11:07;10.23;;;3.47;;
73816;SDS011;62146;53.232;-1.304;2023-05-16T10:13:35;9.83;;;3.57;;
73816;SDS011;62146;53.232;-1.304;2023-05-16T10:16:07;10.10;;;3.40;;
73816;SDS011;62146;53.232;-1.304;2023-05-16T10:18:37;9.07;;;3.47;;
73816;SDS011;62146;53.232;-1.304;2023-05-16T10:21:07;7.55;;;2.92;;
73816;SDS011;62146;53.232;-1.304;2023-05-16T10:23:42;8.98;;;3.50;;
73816;SDS011;62146;53.232;-1.304;2023-05-16T10:26:10;8.27;;;3.20;;
73816;SDS011;62146;53.232;-1.304;2023-05-16T10:28:39;8.32;;;3.20;;
73816;SDS011;62146;53.232;-1.304;2023-05-16T10:31:06;7.53;;;3.25;;
73816;SDS011;62146;53.232;-1.304;2023-05-16T10:33:35;8.80;;;3.40;;
73816;SDS011;62146;53.232;-1.304;2023-05-16T10:36:02;8.20;;;3.22;;
73816;SDS011;62146;53.232;-1.304;2023-05-16T10:38:30;8.63;;;3.03;;
73816;SDS011;62146;53.232;-1.304;2023-05-16T10:40:58;9.68;;;3.70;;
73816;SDS011;62146;53.232;-1.304;2023-05-16T10:43:26;9.57;;;3.10;;
73816;SDS011;62146;53.232;-1.304;2023-05-16T10:46:01;7.00;;;2.90;;
73816;SDS011;62146;53.232;-1.304;2023-05-16T10:48:31;11.73;;;3.72;;
73816;SDS011;62146;53.232;-1.304;2023-05-16T10:50:59;8.53;;;3.43;;
73816;SDS011;62146;53.232;-1.304;2023-05-16T10:53:28;8.82;;;3.50;;
73816;SDS011;62146;53.232;-1.304;2023-05-16T11:01:32;8.68;;;3.33;;
73816;SDS011;62146;53.232;-1.304;2023-05-16T11:04:01;9.53;;;3.50;;
73816;SDS011;62146;53.232;-1.304;2023-05-16T11:09:06;9.52;;;3.58;;
73816;SDS011;62146;53.232;-1.304;2023-05-16T11:14:19;9.15;;;3.65;;
73816;SDS011;62146;53.232;-1.304;2023-05-16T11:19:30;9.88;;;3.67;;
73816;SDS011;62146;53.232;-1.304;2023-05-16T11:25:05;9.68;;;3.67;;
73816;SDS011;62146;53.232;-1.304;2023-05-16T11:27:36;10.20;;;3.55;;
73816;SDS011;62146;53.232;-1.304;2023-05-16T11:32:36;9.15;;;3.53;;
73816;SDS011;62146;53.232;-1.304;2023-05-16T11:35:04;8.35;;;3.40;;
73816;SDS011;62146;53.232;-1.304;2023-05-16T11:37:32;11.07;;;3.92;;
73816;SDS011;62146;53.232;-1.304;2023-05-16T11:39:59;10.23;;;3.60;;
73816;SDS011;62146;53.232;-1.304;2023-05-16T11:42:30;10.33;;;3.30;;
73816;SDS011;62146;53.232;-1.304;2023-05-16T11:45:06;9.57;;;3.80;;
73816;SDS011;62146;53.232;-1.304;2023-05-16T11:47:37;9.57;;;3.38;;
73816;SDS011;62146;53.232;-1.304;2023-05-16T11:50:16;8.25;;;3.40;;
73816;SDS011;62146;53.232;-1.304;2023-05-16T11:52:45;7.97;;;3.70;;
73816;SDS011;62146;53.232;-1.304;2023-05-16T11:55:20;10.63;;;3.57;;
73816;SDS011;62146;53.232;-1.304;2023-05-16T11:58:06;10.25;;;3.72;;
73816;SDS011;62146;53.232;-1.304;2023-05-16T12:00:33;10.27;;;3.33;;
73816;SDS011;62146;53.232;-1.304;2023-05-16T12:03:00;10.88;;;3.72;;
73816;SDS011;62146;53.232;-1.304;2023-05-16T12:05:36;11.18;;;3.72;;
73816;SDS011;62146;53.232;-1.304;2023-05-16T12:08:03;10.37;;;4.00;;
73816;SDS011;62146;53.232;-1.304;2023-05-16T12:10:31;9.05;;;3.38;;
73816;SDS011;62146;53.232;-1.304;2023-05-16T12:13:00;10.05;;;3.42;;
73816;SDS011;62146;53.232;-1.304;2023-05-16T12:15:27;8.02;;;3.28;;
73816;SDS011;62146;53.232;-1.304;2023-05-16T12:17:55;9.88;;;3.40;;
73816;SDS011;62146;53.232;-1.304;2023-05-16T12:20:22;10.10;;;3.47;;
73816;SDS011;62146;53.232;-1.304;2023-05-16T12:22:51;11.90;;;3.83;;
73816;SDS011;62146;53.232;-1.304;2023-05-16T12:25:36;11.10;;;3.40;;
73816;SDS011;62146;53.232;-1.304;2023-05-16T12:28:07;9.63;;;3.65;;
73816;SDS011;62146;53.232;-1.304;2023-05-16T12:30:33;10.43;;;3.33;;
73816;SDS011;62146;53.232;-1.304;2023-05-16T12:33:01;10.53;;;3.53;;
73816;SDS011;62146;53.232;-1.304;2023-05-16T12:35:34;10.45;;;3.40;;
73816;SDS011;62146;53.232;-1.304;2023-05-16T12:38:04;7.70;;;3.20;;
73816;SDS011;62146;53.232;-1.304;2023-05-16T12:40:33;9.77;;;3.22;;
73816;SDS011;62146;53.232;-1.304;2023-05-16T12:43:02;8.57;;;3.10;;
73816;SDS011;62146;53.232;-1.304;2023-05-16T12:45:29;10.13;;;3.50;;
73816;SDS011;62146;53.232;-1.304;2023-05-16T12:48:02;10.80;;;3.60;;
73816;SDS011;62146;53.232;-1.304;2023-05-16T12:50:30;7.30;;;2.85;;
73816;SDS011;62146;53.232;-1.304;2023-05-16T12:52:59;8.38;;;3.28;;
73816;SDS011;62146;53.232;-1.304;2023-05-16T12:55:26;8.48;;;2.90;;
73816;SDS011;62146;53.232;-1.304;2023-05-16T12:57:53;9.70;;;3.10;;
73816;SDS011;62146;53.232;-1.304;2023-05-16T13:00:22;8.48;;;3.35;;
73816;SDS011;62146;53.232;-1.304;2023-05-16T13:02:49;8.68;;;2.83;;
73816;SDS011;62146;53.232;-1.304;2023-05-16T13:05:16;8.05;;;3.08;;
73816;SDS011;62146;53.232;-1.304;2023-05-16T13:07:43;7.88;;;2.70;;
73816;SDS011;62146;53.232;-1.304;2023-05-16T13:10:10;8.50;;;2.90;;
73816;SDS011;62146;53.232;-1.304;2023-05-16T13:12:37;9.30;;;2.95;;
73816;SDS011;62146;53.232;-1.304;2023-05-16T13:15:06;7.70;;;3.05;;
73816;SDS011;62146;53.232;-1.304;2023-05-16T13:17:33;10.23;;;3.42;;
73816;SDS011;62146;53.232;-1.304;2023-05-16T13:20:01;8.70;;;3.38;;
73816;SDS011;62146;53.232;-1.304;2023-05-16T13:22:30;11.03;;;3.23;;
73816;SDS011;62146;53.232;-1.304;2023-05-16T13:24:57;8.18;;;3.00;;
73816;SDS011;62146;53.232;-1.304;2023-05-16T13:27:23;9.98;;;3.05;;
73816;SDS011;62146;53.232;-1.304;2023-05-16T13:29:50;9.07;;;3.20;;
73816;SDS011;62146;53.232;-1.304;2023-05-16T13:32:16;7.65;;;3.00;;
73816;SDS011;62146;53.232;-1.304;2023-05-16T13:34:44;7.93;;;2.97;;
73816;SDS011;62146;53.232;-1.304;2023-05-16T13:37:10;6.65;;;2.63;;
73816;SDS011;62146;53.232;-1.304;2023-05-16T13:39:37;8.80;;;3.03;;
73816;SDS011;62146;53.232;-1.304;2023-05-16T13:42:03;7.68;;;3.05;;
73816;SDS011;62146;53.232;-1.304;2023-05-16T13:44:30;8.57;;;3.67;;
73816;SDS011;62146;53.232;-1.304;2023-05-16T13:46:57;10.20;;;3.27;;
73816;SDS011;62146;53.232;-1.304;2023-05-16T13:49:24;10.18;;;3.80;;
73816;SDS011;62146;53.232;-1.304;2023-05-16T13:51:50;10.68;;;3.67;;
73816;SDS011;62146;53.232;-1.304;2023-05-16T13:54:17;13.27;;;3.40;;
73816;SDS011;62146;53.232;-1.304;2023-05-16T13:56:44;8.68;;;3.20;;
73816;SDS011;62146;53.232;-1.304;2023-05-16T13:59:11;9.20;;;3.00;;
73816;SDS011;62146;53.232;-1.304;2023-05-16T14:01:45;8.00;;;3.25;;
73816;SDS011;62146;53.232;-1.304;2023-05-16T14:04:12;10.07;;;3.35;;
73816;SDS011;62146;53.232;-1.304;2023-05-16T14:06:39;10.00;;;3.40;;
73816;SDS011;62146;53.232;-1.304;2023-05-16T14:09:05;8.43;;;3.25;;
73816;SDS011;62146;53.232;-1.304;2023-05-16T14:11:33;9.40;;;3.40;;
73816;SDS011;62146;53.232;-1.304;2023-05-16T14:14:00;9.55;;;3.00;;
73816;SDS011;62146;53.232;-1.304;2023-05-16T14:16:26;9.77;;;3.17;;
73816;SDS011;62146;53.232;-1.304;2023-05-16T14:18:53;8.00;;;3.10;;
73816;SDS011;62146;53.232;-1.304;2023-05-16T14:21:20;8.98;;;3.22;;
73816;SDS011;62146;53.232;-1.304;2023-05-16T14:23:46;8.23;;;3.00;;
73816;SDS011;62146;53.232;-1.304;2023-05-16T14:26:13;8.23;;;2.88;;
73816;SDS011;62146;53.232;-1.304;2023-05-16T14:28:40;7.40;;;2.97;;
73816;SDS011;62146;53.232;-1.304;2023-05-16T14:31:07;8.27;;;2.95;;
73816;SDS011;62146;53.232;-1.304;2023-05-16T14:33:33;7.18;;;2.90;;
73816;SDS011;62146;53.232;-1.304;2023-05-16T14:36:00;8.53;;;2.87;;
73816;SDS011;62146;53.232;-1.304;2023-05-16T14:38:26;8.02;;;3.00;;
73816;SDS011;62146;53.232;-1.304;2023-05-16T14:40:53;8.10;;;2.90;;
73816;SDS011;62146;53.232;-1.304;2023-05-16T14:43:20;8.63;;;3.00;;
73816;SDS011;62146;53.232;-1.304;2023-05-16T14:45:47;8.48;;;3.17;;
73816;SDS011;62146;53.232;-1.304;2023-05-16T14:48:14;9.17;;;3.10;;
73816;SDS011;62146;53.232;-1.304;2023-05-16T14:50:42;7.53;;;3.15;;
73816;SDS011;62146;53.232;-1.304;2023-05-16T14:53:08;7.50;;;2.67;;
73816;SDS011;62146;53.232;-1.304;2023-05-16T14:55:35;8.73;;;3.08;;
73816;SDS011;62146;53.232;-1.304;2023-05-16T14:58:02;7.68;;;2.65;;
73816;SDS011;62146;53.232;-1.304;2023-05-16T15:00:29;8.70;;;3.30;;
73816;SDS011;62146;53.232;-1.304;2023-05-16T15:02:56;9.30;;;2.97;;
73816;SDS011;62146;53.232;-1.304;2023-05-16T15:05:23;8.80;;;2.88;;
73816;SDS011;62146;53.232;-1.304;2023-05-16T15:07:50;9.27;;;2.63;;
73816;SDS011;62146;53.232;-1.304;2023-05-16T15:10:17;6.40;;;2.70;;